sensor_id;sensor_type;location;lat;lon;timestamp;P1;durP1;ratioP1;P2;durP2;ratioP2
22184;SDS011;11258;52.516;13.318;2023-08-06T00:02:21;8.02;;;7.22;;
22184;SDS011;11258;52.516;13.318;2023-08-06T00:04:46;8.38;;;7.57;;
22184;SDS011;11258;52.516;13.318;2023-08-06T00:07:12;9.00;;;7.82;;
22184;SDS011;11258;52.516;13.318;2023-08-06T00:09:37;10.02;;;8.35;;
22184;SDS011;11258;52.516;13.318;2023-08-06T00:12:03;9.52;;;8.00;;
22184;SDS011;11258;52.516;13.318;2023-08-06T00:14:29;9.35;;;8.18;;
22184;SDS011;11258;52.516;13.318;2023-08-06T00:16:55;10.73;;;8.50;;
22184;SDS011;11258;52.516;13.318;2023-08-06T00:19:21;9.82;;;8.82;;
22184;SDS011;11258;52.516;13.318;2023-08-06T00:21:46;10.27;;;9.27;;
22184;SDS011;11258;52.516;13.318;2023-08-06T00:24:12;12.00;;;9.43;;
22184;SDS011;11258;52.516;13.318;2023-08-06T00:26:37;10.70;;;8.98;;
22184;SDS011;11258;52.516;13.318;2023-08-06T00:29:03;10.52;;;9.43;;
22184;SDS011;11258;52.516;13.318;2023-08-06T00:31:29;9.93;;;8.60;;
22184;SDS011;11258;52.516;13.318;2023-08-06T00:33:54;12.15;;;9.70;;
22184;SDS011;11258;52.516;13.318;2023-08-06T00:36:20;11.57;;;9.50;;
22184;SDS011;11258;52.516;13.318;2023-08-06T00:38:45;10.80;;;9.73;;
22184;SDS011;11258;52.516;13.318;2023-08-06T00:41:11;9.77;;;8.20;;
22184;SDS011;11258;52.516;13.318;2023-08-06T00:43:37;10.95;;;8.82;;
22184;SDS011;11258;52.516;13.318;2023-08-06T00:46:02;11.90;;;8.75;;
22184;SDS011;11258;52.516;13.318;2023-08-06T00:48:28;10.95;;;9.00;;
22184;SDS011;11258;52.516;13.318;2023-08-06T00:50:54;10.35;;;9.25;;
22184;SDS011;11258;52.516;13.318;2023-08-06T00:53:20;10.35;;;8.90;;
22184;SDS011;11258;52.516;13.318;2023-08-06T00:55:45;11.45;;;9.32;;
22184;SDS011;11258;52.516;13.318;2023-08-06T00:58:12;9.10;;;8.13;;
22184;SDS011;11258;52.516;13.318;2023-08-06T01:00:40;10.07;;;8.52;;
22184;SDS011;11258;52.516;13.318;2023-08-06T01:03:06;12.80;;;7.93;;
22184;SDS011;11258;52.516;13.318;2023-08-06T01:05:31;10.20;;;8.60;;
22184;SDS011;11258;52.516;13.318;2023-08-06T01:13:30;10.38;;;7.63;;
22184;SDS011;11258;52.516;13.318;2023-08-06T01:16:02;9.27;;;8.25;;
22184;SDS011;11258;52.516;13.318;2023-08-06T01:18:30;11.00;;;7.47;;
22184;SDS011;11258;52.516;13.318;2023-08-06T01:20:56;9.60;;;7.32;;
22184;SDS011;11258;52.516;13.318;2023-08-06T01:23:22;8.60;;;7.03;;
22184;SDS011;11258;52.516;13.318;2023-08-06T01:26:02;10.02;;;7.97;;
22184;SDS011;11258;52.516;13.318;2023-08-06T01:28:40;8.45;;;7.53;;
22184;SDS011;11258;52.516;13.318;2023-08-06T01:31:15;9.13;;;7.30;;
22184;SDS011;11258;52.516;13.318;2023-08-06T01:33:51;9.15;;;8.25;;
22184;SDS011;11258;52.516;13.318;2023-08-06T01:36:18;8.85;;;7.88;;
22184;SDS011;11258;52.516;13.318;2023-08-06T01:38:45;8.10;;;7.30;;
22184;SDS011;11258;52.516;13.318;2023-08-06T01:41:11;7.70;;;6.93;;
22184;SDS011;11258;52.516;13.318;2023-08-06T01:43:37;8.60;;;7.75;;
22184;SDS011;11258;52.516;13.318;2023-08-06T01:46:02;10.27;;;8.40;;
22184;SDS011;11258;52.516;13.318;2023-08-06T01:48:28;9.15;;;7.90;;
22184;SDS011;11258;52.516;13.318;2023-08-06T01:50:53;8.75;;;7.90;;
22184;SDS011;11258;52.516;13.318;2023-08-06T01:53:19;8.40;;;7.55;;
22184;SDS011;11258;52.516;13.318;2023-08-06T01:55:50;8.48;;;7.68;;
22184;SDS011;11258;52.516;13.318;2023-08-06T01:58:16;9.95;;;7.85;;
22184;SDS011;11258;52.516;13.318;2023-08-06T02:00:42;8.30;;;7.50;;
22184;SDS011;11258;52.516;13.318;2023-08-06T02:03:07;8.95;;;7.70;;
22184;SDS011;11258;52.516;13.318;2023-08-06T02:05:33;8.85;;;7.90;;
22184;SDS011;11258;52.516;13.318;2023-08-06T02:07:58;8.95;;;7.20;;
22184;SDS011;11258;52.516;13.318;2023-08-06T02:10:24;11.27;;;7.60;;
22184;SDS011;11258;52.516;13.318;2023-08-06T02:12:50;8.23;;;7.40;;
22184;SDS011;11258;52.516;13.318;2023-08-06T02:15:15;8.52;;;7.60;;
22184;SDS011;11258;52.516;13.318;2023-08-06T02:17:41;9.02;;;7.45;;
22184;SDS011;11258;52.516;13.318;2023-08-06T02:20:07;9.07;;;7.50;;
22184;SDS011;11258;52.516;13.318;2023-08-06T02:22:32;8.07;;;7.25;;
22184;SDS011;11258;52.516;13.318;2023-08-06T02:24:58;9.02;;;7.78;;
22184;SDS011;11258;52.516;13.318;2023-08-06T02:27:24;8.07;;;7.13;;
22184;SDS011;11258;52.516;13.318;2023-08-06T02:29:50;9.52;;;7.60;;
22184;SDS011;11258;52.516;13.318;2023-08-06T02:32:15;8.95;;;8.05;;
22184;SDS011;11258;52.516;13.318;2023-08-06T02:34:41;7.93;;;7.13;;
22184;SDS011;11258;52.516;13.318;2023-08-06T02:37:07;9.35;;;8.05;;
22184;SDS011;11258;52.516;13.318;2023-08-06T02:39:32;10.40;;;7.50;;
22184;SDS011;11258;52.516;13.318;2023-08-06T02:41:59;9.00;;;8.20;;
22184;SDS011;11258;52.516;13.318;2023-08-06T02:44:27;8.15;;;7.30;;
22184;SDS011;11258;52.516;13.318;2023-08-06T02:46:53;10.27;;;7.78;;
22184;SDS011;11258;52.516;13.318;2023-08-06T02:49:19;8.90;;;8.00;;
22184;SDS011;11258;52.516;13.318;2023-08-06T02:51:45;9.82;;;7.88;;
22184;SDS011;11258;52.516;13.318;2023-08-06T02:54:10;10.13;;;7.82;;
22184;SDS011;11258;52.516;13.318;2023-08-06T02:56:36;8.82;;;8.02;;
22184;SDS011;11258;52.516;13.318;2023-08-06T02:59:02;9.65;;;8.68;;
22184;SDS011;11258;52.516;13.318;2023-08-06T03:01:28;11.45;;;7.72;;
22184;SDS011;11258;52.516;13.318;2023-08-06T03:03:54;8.70;;;7.78;;
22184;SDS011;11258;52.516;13.318;2023-08-06T03:06:19;8.30;;;7.47;;
22184;SDS011;11258;52.516;13.318;2023-08-06T03:08:45;9.38;;;8.43;;
22184;SDS011;11258;52.516;13.318;2023-08-06T03:11:11;9.48;;;8.10;;
22184;SDS011;11258;52.516;13.318;2023-08-06T03:13:36;10.10;;;8.13;;
22184;SDS011;11258;52.516;13.318;2023-08-06T03:16:02;11.82;;;8.07;;
22184;SDS011;11258;52.516;13.318;2023-08-06T03:18:28;8.48;;;7.60;;
22184;SDS011;11258;52.516;13.318;2023-08-06T03:20:53;8.88;;;7.00;;
22184;SDS011;11258;52.516;13.318;2023-08-06T03:23:19;7.53;;;6.82;;
22184;SDS011;11258;52.516;13.318;2023-08-06T03:25:45;9.95;;;8.95;;
22184;SDS011;11258;52.516;13.318;2023-08-06T03:28:11;11.38;;;7.78;;
22184;SDS011;11258;52.516;13.318;2023-08-06T03:30:37;8.60;;;7.47;;
22184;SDS011;11258;52.516;13.318;2023-08-06T03:33:03;8.88;;;7.97;;
22184;SDS011;11258;52.516;13.318;2023-08-06T03:35:29;11.25;;;9.10;;
22184;SDS011;11258;52.516;13.318;2023-08-06T03:37:54;10.57;;;8.98;;
22184;SDS011;11258;52.516;13.318;2023-08-06T03:40:20;9.75;;;8.23;;
22184;SDS011;11258;52.516;13.318;2023-08-06T03:42:46;9.25;;;8.27;;
22184;SDS011;11258;52.516;13.318;2023-08-06T03:45:12;9.70;;;8.60;;
22184;SDS011;11258;52.516;13.318;2023-08-06T03:47:37;8.90;;;7.85;;
22184;SDS011;11258;52.516;13.318;2023-08-06T03:50:03;8.85;;;7.85;;
22184;SDS011;11258;52.516;13.318;2023-08-06T03:52:29;11.10;;;7.85;;
22184;SDS011;11258;52.516;13.318;2023-08-06T03:54:54;9.60;;;7.30;;
22184;SDS011;11258;52.516;13.318;2023-08-06T03:57:20;7.93;;;7.07;;
22184;SDS011;11258;52.516;13.318;2023-08-06T03:59:46;8.25;;;7.40;;
22184;SDS011;11258;52.516;13.318;2023-08-06T04:02:11;8.20;;;7.40;;
22184;SDS011;11258;52.516;13.318;2023-08-06T04:04:37;8.60;;;6.88;;
22184;SDS011;11258;52.516;13.318;2023-08-06T04:07:02;8.02;;;7.22;;
22184;SDS011;11258;52.516;13.318;2023-08-06T04:09:28;8.00;;;6.25;;
22184;SDS011;11258;52.516;13.318;2023-08-06T04:11:54;6.15;;;5.55;;
22184;SDS011;11258;52.516;13.318;2023-08-06T04:14:21;7.65;;;6.93;;
22184;SDS011;11258;52.516;13.318;2023-08-06T04:16:46;6.43;;;5.82;;
22184;SDS011;11258;52.516;13.318;2023-08-06T04:19:12;6.35;;;5.70;;
22184;SDS011;11258;52.516;13.318;2023-08-06T04:21:37;8.02;;;6.43;;
22184;SDS011;11258;52.516;13.318;2023-08-06T04:24:03;6.63;;;5.93;;
22184;SDS011;11258;52.516;13.318;2023-08-06T04:26:29;6.85;;;5.57;;
22184;SDS011;11258;52.516;13.318;2023-08-06T04:28:54;6.82;;;5.95;;
22184;SDS011;11258;52.516;13.318;2023-08-06T04:31:21;8.02;;;6.25;;
22184;SDS011;11258;52.516;13.318;2023-08-06T04:33:47;7.38;;;6.28;;
22184;SDS011;11258;52.516;13.318;2023-08-06T04:36:12;6.75;;;5.90;;
22184;SDS011;11258;52.516;13.318;2023-08-06T04:38:38;5.95;;;5.35;;
22184;SDS011;11258;52.516;13.318;2023-08-06T04:41:06;7.75;;;5.68;;
22184;SDS011;11258;52.516;13.318;2023-08-06T04:43:32;7.38;;;6.68;;
22184;SDS011;11258;52.516;13.318;2023-08-06T04:45:57;6.10;;;5.50;;
22184;SDS011;11258;52.516;13.318;2023-08-06T04:48:23;6.85;;;6.18;;
22184;SDS011;11258;52.516;13.318;2023-08-06T04:50:49;6.38;;;5.72;;
22184;SDS011;11258;52.516;13.318;2023-08-06T04:53:15;6.18;;;5.45;;
22184;SDS011;11258;52.516;13.318;2023-08-06T04:55:41;7.10;;;5.72;;
22184;SDS011;11258;52.516;13.318;2023-08-06T04:58:08;6.20;;;5.60;;
22184;SDS011;11258;52.516;13.318;2023-08-06T05:00:35;7.78;;;6.15;;
22184;SDS011;11258;52.516;13.318;2023-08-06T05:03:00;8.57;;;6.40;;
22184;SDS011;11258;52.516;13.318;2023-08-06T05:05:27;7.18;;;6.15;;
22184;SDS011;11258;52.516;13.318;2023-08-06T05:07:54;8.38;;;6.90;;
22184;SDS011;11258;52.516;13.318;2023-08-06T05:10:21;6.72;;;6.13;;
22184;SDS011;11258;52.516;13.318;2023-08-06T05:12:49;6.70;;;6.00;;
22184;SDS011;11258;52.516;13.318;2023-08-06T05:15:14;7.78;;;6.97;;
22184;SDS011;11258;52.516;13.318;2023-08-06T05:17:40;7.78;;;6.60;;
22184;SDS011;11258;52.516;13.318;2023-08-06T05:20:06;7.63;;;6.32;;
22184;SDS011;11258;52.516;13.318;2023-08-06T05:22:32;6.53;;;5.90;;
22184;SDS011;11258;52.516;13.318;2023-08-06T05:24:57;7.03;;;6.40;;
22184;SDS011;11258;52.516;13.318;2023-08-06T05:27:23;6.70;;;5.65;;
22184;SDS011;11258;52.516;13.318;2023-08-06T05:29:48;7.75;;;5.47;;
22184;SDS011;11258;52.516;13.318;2023-08-06T05:32:14;6.38;;;5.63;;
22184;SDS011;11258;52.516;13.318;2023-08-06T05:34:40;6.45;;;5.85;;
22184;SDS011;11258;52.516;13.318;2023-08-06T05:37:06;6.57;;;5.47;;
22184;SDS011;11258;52.516;13.318;2023-08-06T05:39:32;6.18;;;5.55;;
22184;SDS011;11258;52.516;13.318;2023-08-06T05:41:58;9.32;;;6.43;;
22184;SDS011;11258;52.516;13.318;2023-08-06T05:44:23;7.22;;;6.53;;
22184;SDS011;11258;52.516;13.318;2023-08-06T05:46:49;7.18;;;6.20;;
22184;SDS011;11258;52.516;13.318;2023-08-06T05:49:15;6.90;;;6.20;;
22184;SDS011;11258;52.516;13.318;2023-08-06T05:51:41;6.80;;;5.30;;
22184;SDS011;11258;52.516;13.318;2023-08-06T05:54:06;6.93;;;5.80;;
22184;SDS011;11258;52.516;13.318;2023-08-06T05:56:32;5.90;;;5.30;;
22184;SDS011;11258;52.516;13.318;2023-08-06T05:58:58;6.15;;;5.40;;
22184;SDS011;11258;52.516;13.318;2023-08-06T06:01:24;8.50;;;6.72;;
22184;SDS011;11258;52.516;13.318;2023-08-06T06:03:49;8.65;;;7.35;;
22184;SDS011;11258;52.516;13.318;2023-08-06T06:06:15;7.53;;;6.75;;
22184;SDS011;11258;52.516;13.318;2023-08-06T06:08:41;7.18;;;6.30;;
22184;SDS011;11258;52.516;13.318;2023-08-06T06:11:07;7.70;;;6.90;;
22184;SDS011;11258;52.516;13.318;2023-08-06T06:13:32;6.47;;;5.63;;
22184;SDS011;11258;52.516;13.318;2023-08-06T06:15:58;7.07;;;5.70;;
22184;SDS011;11258;52.516;13.318;2023-08-06T06:18:24;7.15;;;6.38;;
22184;SDS011;11258;52.516;13.318;2023-08-06T06:20:49;7.25;;;6.47;;
22184;SDS011;11258;52.516;13.318;2023-08-06T06:23:15;7.55;;;6.80;;
22184;SDS011;11258;52.516;13.318;2023-08-06T06:25:46;8.50;;;6.60;;
22184;SDS011;11258;52.516;13.318;2023-08-06T06:28:13;6.95;;;6.15;;
22184;SDS011;11258;52.516;13.318;2023-08-06T06:30:40;9.52;;;7.20;;
22184;SDS011;11258;52.516;13.318;2023-08-06T06:33:07;9.68;;;8.68;;
22184;SDS011;11258;52.516;13.318;2023-08-06T06:35:33;6.00;;;5.40;;
22184;SDS011;11258;52.516;13.318;2023-08-06T06:37:58;6.22;;;5.63;;
22184;SDS011;11258;52.516;13.318;2023-08-06T06:40:25;6.13;;;5.53;;
22184;SDS011;11258;52.516;13.318;2023-08-06T06:42:50;5.95;;;5.28;;
22184;SDS011;11258;52.516;13.318;2023-08-06T06:45:16;5.65;;;5.05;;
22184;SDS011;11258;52.516;13.318;2023-08-06T06:47:42;5.30;;;4.80;;
22184;SDS011;11258;52.516;13.318;2023-08-06T06:50:07;6.13;;;5.53;;
22184;SDS011;11258;52.516;13.318;2023-08-06T06:52:34;5.55;;;4.85;;
22184;SDS011;11258;52.516;13.318;2023-08-06T06:55:00;5.70;;;5.20;;
22184;SDS011;11258;52.516;13.318;2023-08-06T06:57:25;5.30;;;4.63;;
22184;SDS011;11258;52.516;13.318;2023-08-06T06:59:51;6.15;;;5.18;;
22184;SDS011;11258;52.516;13.318;2023-08-06T07:02:17;5.15;;;4.65;;
22184;SDS011;11258;52.516;13.318;2023-08-06T07:04:42;5.68;;;4.82;;
22184;SDS011;11258;52.516;13.318;2023-08-06T07:07:08;7.90;;;4.63;;
22184;SDS011;11258;52.516;13.318;2023-08-06T07:09:34;4.82;;;4.10;;
22184;SDS011;11258;52.516;13.318;2023-08-06T07:12:00;5.05;;;4.50;;
22184;SDS011;11258;52.516;13.318;2023-08-06T07:14:26;4.78;;;4.20;;
22184;SDS011;11258;52.516;13.318;2023-08-06T07:16:53;5.63;;;5.13;;
22184;SDS011;11258;52.516;13.318;2023-08-06T07:19:19;6.45;;;4.88;;
22184;SDS011;11258;52.516;13.318;2023-08-06T07:21:45;5.22;;;4.72;;
22184;SDS011;11258;52.516;13.318;2023-08-06T07:24:11;7.57;;;4.88;;
22184;SDS011;11258;52.516;13.318;2023-08-06T07:26:36;5.93;;;5.35;;
22184;SDS011;11258;52.516;13.318;2023-08-06T07:29:02;6.35;;;5.43;;
22184;SDS011;11258;52.516;13.318;2023-08-06T07:31:28;5.75;;;5.25;;
22184;SDS011;11258;52.516;13.318;2023-08-06T07:33:54;7.93;;;5.70;;
22184;SDS011;11258;52.516;13.318;2023-08-06T07:36:19;7.07;;;6.38;;
22184;SDS011;11258;52.516;13.318;2023-08-06T07:38:45;5.68;;;5.18;;
22184;SDS011;11258;52.516;13.318;2023-08-06T07:41:11;6.35;;;5.75;;
22184;SDS011;11258;52.516;13.318;2023-08-06T07:43:37;6.60;;;6.00;;
22184;SDS011;11258;52.516;13.318;2023-08-06T07:46:02;7.45;;;6.72;;
22184;SDS011;11258;52.516;13.318;2023-08-06T07:48:28;7.65;;;5.57;;
22184;SDS011;11258;52.516;13.318;2023-08-06T07:50:54;7.47;;;5.95;;
22184;SDS011;11258;52.516;13.318;2023-08-06T07:53:24;7.63;;;6.15;;
22184;SDS011;11258;52.516;13.318;2023-08-06T07:55:54;6.40;;;5.57;;
22184;SDS011;11258;52.516;13.318;2023-08-06T07:58:20;7.45;;;6.75;;
22184;SDS011;11258;52.516;13.318;2023-08-06T08:00:46;10.25;;;8.55;;
22184;SDS011;11258;52.516;13.318;2023-08-06T08:03:12;8.15;;;7.28;;
22184;SDS011;11258;52.516;13.318;2023-08-06T08:05:39;7.40;;;6.63;;
22184;SDS011;11258;52.516;13.318;2023-08-06T08:08:05;9.50;;;7.80;;
22184;SDS011;11258;52.516;13.318;2023-08-06T08:10:31;8.50;;;7.68;;
22184;SDS011;11258;52.516;13.318;2023-08-06T08:12:57;8.93;;;8.13;;
22184;SDS011;11258;52.516;13.318;2023-08-06T08:15:24;10.88;;;8.95;;
22184;SDS011;11258;52.516;13.318;2023-08-06T08:17:51;10.13;;;9.13;;
22184;SDS011;11258;52.516;13.318;2023-08-06T08:20:17;9.82;;;8.57;;
22184;SDS011;11258;52.516;13.318;2023-08-06T08:22:43;9.70;;;8.77;;
22184;SDS011;11258;52.516;13.318;2023-08-06T08:25:08;11.07;;;9.00;;
22184;SDS011;11258;52.516;13.318;2023-08-06T08:27:34;9.60;;;8.63;;
22184;SDS011;11258;52.516;13.318;2023-08-06T08:30:00;9.90;;;8.90;;
22184;SDS011;11258;52.516;13.318;2023-08-06T08:32:25;10.43;;;9.18;;
22184;SDS011;11258;52.516;13.318;2023-08-06T08:34:51;9.13;;;8.25;;
22184;SDS011;11258;52.516;13.318;2023-08-06T08:37:16;9.77;;;8.68;;
22184;SDS011;11258;52.516;13.318;2023-08-06T08:39:42;13.38;;;8.90;;
22184;SDS011;11258;52.516;13.318;2023-08-06T08:42:08;9.43;;;8.48;;
22184;SDS011;11258;52.516;13.318;2023-08-06T08:44:35;10.75;;;9.68;;
22184;SDS011;11258;52.516;13.318;2023-08-06T08:47:05;12.20;;;9.35;;
22184;SDS011;11258;52.516;13.318;2023-08-06T08:49:31;9.38;;;8.38;;
22184;SDS011;11258;52.516;13.318;2023-08-06T08:51:59;10.07;;;8.70;;
22184;SDS011;11258;52.516;13.318;2023-08-06T08:54:27;10.85;;;9.73;;
22184;SDS011;11258;52.516;13.318;2023-08-06T08:56:56;10.10;;;8.88;;
22184;SDS011;11258;52.516;13.318;2023-08-06T08:59:22;9.25;;;8.35;;
22184;SDS011;11258;52.516;13.318;2023-08-06T09:01:48;11.18;;;8.63;;
22184;SDS011;11258;52.516;13.318;2023-08-06T09:04:16;9.90;;;8.90;;
22184;SDS011;11258;52.516;13.318;2023-08-06T09:06:43;9.48;;;8.52;;
22184;SDS011;11258;52.516;13.318;2023-08-06T09:09:12;9.20;;;8.40;;
22184;SDS011;11258;52.516;13.318;2023-08-06T09:11:42;9.63;;;8.65;;
22184;SDS011;11258;52.516;13.318;2023-08-06T09:14:10;9.32;;;8.27;;
22184;SDS011;11258;52.516;13.318;2023-08-06T09:16:36;9.63;;;8.73;;
22184;SDS011;11258;52.516;13.318;2023-08-06T09:19:08;10.38;;;9.27;;
22184;SDS011;11258;52.516;13.318;2023-08-06T09:21:38;9.15;;;8.23;;
22184;SDS011;11258;52.516;13.318;2023-08-06T09:24:11;10.13;;;9.13;;
22184;SDS011;11258;52.516;13.318;2023-08-06T09:26:43;9.30;;;8.40;;
22184;SDS011;11258;52.516;13.318;2023-08-06T09:29:09;10.15;;;9.15;;
22184;SDS011;11258;52.516;13.318;2023-08-06T09:31:43;11.02;;;9.30;;
22184;SDS011;11258;52.516;13.318;2023-08-06T09:34:17;10.77;;;9.25;;
22184;SDS011;11258;52.516;13.318;2023-08-06T09:36:48;9.57;;;8.63;;
22184;SDS011;11258;52.516;13.318;2023-08-06T09:39:19;10.32;;;9.23;;
22184;SDS011;11258;52.516;13.318;2023-08-06T09:41:45;10.70;;;9.05;;
22184;SDS011;11258;52.516;13.318;2023-08-06T09:44:18;9.60;;;8.45;;
22184;SDS011;11258;52.516;13.318;2023-08-06T09:46:54;11.27;;;10.02;;
22184;SDS011;11258;52.516;13.318;2023-08-06T09:49:25;10.35;;;9.40;;
22184;SDS011;11258;52.516;13.318;2023-08-06T09:51:57;9.93;;;8.82;;
22184;SDS011;11258;52.516;13.318;2023-08-06T09:54:25;11.02;;;9.73;;
22184;SDS011;11258;52.516;13.318;2023-08-06T09:56:52;10.02;;;8.70;;
22184;SDS011;11258;52.516;13.318;2023-08-06T09:59:19;10.40;;;9.27;;
22184;SDS011;11258;52.516;13.318;2023-08-06T10:01:45;9.82;;;8.82;;
22184;SDS011;11258;52.516;13.318;2023-08-06T10:04:11;11.70;;;10.50;;
22184;SDS011;11258;52.516;13.318;2023-08-06T10:06:41;9.90;;;9.00;;
22184;SDS011;11258;52.516;13.318;2023-08-06T10:09:08;10.32;;;9.20;;
22184;SDS011;11258;52.516;13.318;2023-08-06T10:11:34;10.18;;;8.93;;
22184;SDS011;11258;52.516;13.318;2023-08-06T10:14:08;9.95;;;9.00;;
22184;SDS011;11258;52.516;13.318;2023-08-06T10:16:37;11.15;;;10.15;;
22184;SDS011;11258;52.516;13.318;2023-08-06T10:19:05;12.38;;;9.38;;
22184;SDS011;11258;52.516;13.318;2023-08-06T10:21:34;12.38;;;9.93;;
22184;SDS011;11258;52.516;13.318;2023-08-06T10:23:59;10.57;;;9.48;;
22184;SDS011;11258;52.516;13.318;2023-08-06T10:26:27;11.63;;;10.43;;
22184;SDS011;11258;52.516;13.318;2023-08-06T10:28:53;13.13;;;11.48;;
22184;SDS011;11258;52.516;13.318;2023-08-06T10:31:19;13.05;;;11.75;;
22184;SDS011;11258;52.516;13.318;2023-08-06T10:33:46;13.35;;;11.95;;
22184;SDS011;11258;52.516;13.318;2023-08-06T10:36:13;14.50;;;11.70;;
22184;SDS011;11258;52.516;13.318;2023-08-06T10:38:49;13.88;;;12.13;;
22184;SDS011;11258;52.516;13.318;2023-08-06T10:41:36;19.55;;;14.05;;
22184;SDS011;11258;52.516;13.318;2023-08-06T10:44:08;14.30;;;12.65;;
22184;SDS011;11258;52.516;13.318;2023-08-06T10:46:34;13.55;;;12.05;;
22184;SDS011;11258;52.516;13.318;2023-08-06T10:49:00;12.82;;;11.35;;
22184;SDS011;11258;52.516;13.318;2023-08-06T10:51:26;11.52;;;10.32;;
22184;SDS011;11258;52.516;13.318;2023-08-06T10:53:52;12.30;;;10.05;;
22184;SDS011;11258;52.516;13.318;2023-08-06T10:56:21;12.10;;;10.10;;
22184;SDS011;11258;52.516;13.318;2023-08-06T10:58:50;11.07;;;10.02;;
22184;SDS011;11258;52.516;13.318;2023-08-06T11:01:17;10.65;;;9.60;;
22184;SDS011;11258;52.516;13.318;2023-08-06T11:03:44;10.35;;;8.90;;
22184;SDS011;11258;52.516;13.318;2023-08-06T11:06:10;9.98;;;8.98;;
22184;SDS011;11258;52.516;13.318;2023-08-06T11:08:46;10.57;;;9.57;;
22184;SDS011;11258;52.516;13.318;2023-08-06T11:11:14;10.93;;;9.60;;
22184;SDS011;11258;52.516;13.318;2023-08-06T11:13:41;11.68;;;10.10;;
22184;SDS011;11258;52.516;13.318;2023-08-06T11:16:09;11.05;;;9.75;;
22184;SDS011;11258;52.516;13.318;2023-08-06T11:18:35;12.05;;;9.98;;
22184;SDS011;11258;52.516;13.318;2023-08-06T11:21:01;10.48;;;9.43;;
22184;SDS011;11258;52.516;13.318;2023-08-06T11:23:27;10.65;;;9.45;;
22184;SDS011;11258;52.516;13.318;2023-08-06T11:25:54;10.27;;;9.27;;
22184;SDS011;11258;52.516;13.318;2023-08-06T11:28:21;12.07;;;9.30;;
22184;SDS011;11258;52.516;13.318;2023-08-06T11:30:47;9.70;;;8.80;;
22184;SDS011;11258;52.516;13.318;2023-08-06T11:33:13;11.35;;;10.20;;
22184;SDS011;11258;52.516;13.318;2023-08-06T11:35:39;10.38;;;9.25;;
22184;SDS011;11258;52.516;13.318;2023-08-06T11:38:05;14.13;;;10.50;;
22184;SDS011;11258;52.516;13.318;2023-08-06T11:40:32;11.45;;;10.25;;
22184;SDS011;11258;52.516;13.318;2023-08-06T11:42:58;12.52;;;9.70;;
22184;SDS011;11258;52.516;13.318;2023-08-06T11:45:24;11.55;;;10.20;;
22184;SDS011;11258;52.516;13.318;2023-08-06T11:47:50;14.30;;;11.75;;
22184;SDS011;11258;52.516;13.318;2023-08-06T11:50:23;12.38;;;10.45;;
22184;SDS011;11258;52.516;13.318;2023-08-06T11:52:52;12.40;;;9.68;;
22184;SDS011;11258;52.516;13.318;2023-08-06T11:55:25;11.88;;;10.52;;
22184;SDS011;11258;52.516;13.318;2023-08-06T11:57:53;12.88;;;10.55;;
22184;SDS011;11258;52.516;13.318;2023-08-06T12:00:19;14.73;;;11.43;;
22184;SDS011;11258;52.516;13.318;2023-08-06T12:02:48;10.52;;;9.50;;
22184;SDS011;11258;52.516;13.318;2023-08-06T12:05:16;10.70;;;9.60;;
22184;SDS011;11258;52.516;13.318;2023-08-06T12:07:47;13.02;;;10.52;;
22184;SDS011;11258;52.516;13.318;2023-08-06T12:10:14;12.18;;;10.98;;
22184;SDS011;11258;52.516;13.318;2023-08-06T12:12:41;12.43;;;10.15;;
22184;SDS011;11258;52.516;13.318;2023-08-06T12:15:07;12.48;;;11.05;;
22184;SDS011;11258;52.516;13.318;2023-08-06T12:17:34;14.23;;;9.13;;
22184;SDS011;11258;52.516;13.318;2023-08-06T12:20:00;11.32;;;9.90;;
22184;SDS011;11258;52.516;13.318;2023-08-06T12:22:27;12.02;;;10.43;;
22184;SDS011;11258;52.516;13.318;2023-08-06T12:24:52;11.38;;;10.05;;
22184;SDS011;11258;52.516;13.318;2023-08-06T12:27:18;12.82;;;10.30;;
22184;SDS011;11258;52.516;13.318;2023-08-06T12:29:45;9.38;;;8.45;;
22184;SDS011;11258;52.516;13.318;2023-08-06T12:32:12;9.70;;;8.55;;
22184;SDS011;11258;52.516;13.318;2023-08-06T12:34:39;9.05;;;8.10;;
22184;SDS011;11258;52.516;13.318;2023-08-06T12:37:05;8.43;;;7.60;;
22184;SDS011;11258;52.516;13.318;2023-08-06T12:39:34;10.05;;;8.05;;
22184;SDS011;11258;52.516;13.318;2023-08-06T12:42:01;10.90;;;9.15;;
22184;SDS011;11258;52.516;13.318;2023-08-06T12:44:27;8.35;;;7.53;;
22184;SDS011;11258;52.516;13.318;2023-08-06T12:46:53;9.40;;;8.35;;
22184;SDS011;11258;52.516;13.318;2023-08-06T12:49:19;12.05;;;8.90;;
22184;SDS011;11258;52.516;13.318;2023-08-06T12:51:48;8.73;;;7.82;;
22184;SDS011;11258;52.516;13.318;2023-08-06T12:54:16;7.82;;;7.05;;
22184;SDS011;11258;52.516;13.318;2023-08-06T12:56:42;8.38;;;7.57;;
22184;SDS011;11258;52.516;13.318;2023-08-06T12:59:09;10.45;;;8.80;;
22184;SDS011;11258;52.516;13.318;2023-08-06T13:01:34;9.55;;;8.55;;
22184;SDS011;11258;52.516;13.318;2023-08-06T13:04:00;11.82;;;8.77;;
22184;SDS011;11258;52.516;13.318;2023-08-06T13:06:26;9.63;;;8.63;;
22184;SDS011;11258;52.516;13.318;2023-08-06T13:08:51;11.10;;;10.00;;
22184;SDS011;11258;52.516;13.318;2023-08-06T13:11:17;13.60;;;11.43;;
22184;SDS011;11258;52.516;13.318;2023-08-06T13:13:44;11.10;;;8.98;;
22184;SDS011;11258;52.516;13.318;2023-08-06T13:16:09;10.18;;;8.80;;
22184;SDS011;11258;52.516;13.318;2023-08-06T13:18:35;9.77;;;8.70;;
22184;SDS011;11258;52.516;13.318;2023-08-06T13:21:00;10.93;;;9.80;;
22184;SDS011;11258;52.516;13.318;2023-08-06T13:23:26;10.43;;;7.82;;
22184;SDS011;11258;52.516;13.318;2023-08-06T13:25:52;8.88;;;7.97;;
22184;SDS011;11258;52.516;13.318;2023-08-06T13:28:18;8.77;;;7.45;;
22184;SDS011;11258;52.516;13.318;2023-08-06T13:30:44;8.63;;;7.65;;
22184;SDS011;11258;52.516;13.318;2023-08-06T13:33:10;8.27;;;7.35;;
22184;SDS011;11258;52.516;13.318;2023-08-06T13:35:36;9.75;;;7.43;;
22184;SDS011;11258;52.516;13.318;2023-08-06T13:38:02;8.15;;;7.35;;
22184;SDS011;11258;52.516;13.318;2023-08-06T13:40:28;9.23;;;7.57;;
22184;SDS011;11258;52.516;13.318;2023-08-06T13:42:55;9.18;;;7.72;;
22184;SDS011;11258;52.516;13.318;2023-08-06T13:45:21;9.63;;;6.80;;
22184;SDS011;11258;52.516;13.318;2023-08-06T13:47:46;8.63;;;7.60;;
22184;SDS011;11258;52.516;13.318;2023-08-06T13:50:12;10.60;;;8.30;;
22184;SDS011;11258;52.516;13.318;2023-08-06T13:52:38;10.77;;;8.85;;
22184;SDS011;11258;52.516;13.318;2023-08-06T13:55:04;10.60;;;8.20;;
22184;SDS011;11258;52.516;13.318;2023-08-06T13:57:30;10.63;;;8.45;;
22184;SDS011;11258;52.516;13.318;2023-08-06T13:59:56;17.27;;;11.95;;
22184;SDS011;11258;52.516;13.318;2023-08-06T14:02:22;10.65;;;8.73;;
22184;SDS011;11258;52.516;13.318;2023-08-06T14:04:47;9.02;;;7.78;;
22184;SDS011;11258;52.516;13.318;2023-08-06T14:07:13;10.07;;;8.77;;
22184;SDS011;11258;52.516;13.318;2023-08-06T14:09:39;9.82;;;7.65;;
22184;SDS011;11258;52.516;13.318;2023-08-06T14:12:05;10.00;;;7.85;;
22184;SDS011;11258;52.516;13.318;2023-08-06T14:14:31;10.73;;;7.88;;
22184;SDS011;11258;52.516;13.318;2023-08-06T14:16:57;8.98;;;8.07;;
22184;SDS011;11258;52.516;13.318;2023-08-06T14:19:22;7.32;;;6.60;;
22184;SDS011;11258;52.516;13.318;2023-08-06T14:21:48;12.57;;;7.82;;
22184;SDS011;11258;52.516;13.318;2023-08-06T14:24:14;10.98;;;7.43;;
22184;SDS011;11258;52.516;13.318;2023-08-06T14:26:40;8.00;;;7.20;;
22184;SDS011;11258;52.516;13.318;2023-08-06T14:29:05;10.43;;;7.65;;
22184;SDS011;11258;52.516;13.318;2023-08-06T14:31:31;8.80;;;6.88;;